Latest Weather Observations for Montague Island

IDN60901

Issued at 11:31 am EDT Saturday 13 February 2016 (issued every 10 minutes, with the page automatically refreshed every 10 minutes)

About weather observations | Map of Canberra area stations | Latest observations for Canberra area | Other Formats
Station Details ID: 069017 Name: MONTAGUE ISLAND LIGHTHOUSE Lat: -36.25 Lon: 150.23 Height: 52.0 m
Data from the previous 72 hours. | See also: Recent months at Montague Island
Date/Time
EDT
Tmp

°C
App
Tmp
°C
Dew
Point
°C
Rel
Hum
%
Delta-T

°C
Wind Press
QNH
hPa
Press
MSL
hPa
Rain
since
9 am
mm
Dir
 
Spd
km/h
Gust
km/h
Spd
kts
Gust
kts
13/11:00am 24.0 21.5 20.1 79 2.5 NNE 33 39 18 21 1011.5 1011.4 0.0
13/10:30am 23.9 21.0 20.0 79 2.5 NNE 35 41 19 22 1011.8 1011.7 0.0
13/10:00am 23.9 22.5 20.4 81 2.3 N 28 35 15 19 1012.0 1011.9 0.0
13/09:30am 23.4 21.0 20.0 81 2.2 NNE 32 39 17 21 1012.1 1012.0 0.0
13/09:00am 23.4 21.9 20.2 82 2.1 N 28 35 15 19 1012.3 1012.2 0.2
13/08:30am 23.1 21.5 20.1 83 1.9 N 28 35 15 19 1012.2 1012.1 0.2
13/08:00am 22.9 21.8 20.2 85 1.7 N 26 32 14 17 1012.2 1012.1 0.2
13/07:30am 22.5 21.1 20.4 88 1.4 N 28 35 15 19 1012.2 1012.1 0.2
13/07:00am 22.1 20.3 20.4 90 1.1 NNE 30 33 16 18 1012.0 1011.9 0.2
13/06:30am 22.0 20.6 20.5 91 1.0 NNE 28 32 15 17 1011.9 1011.8 0.2
13/06:00am 22.2 21.3 20.7 91 1.0 NNE 26 32 14 17 1011.9 1011.8 0.2
13/05:30am 22.1 20.8 20.7 92 0.9 N 28 35 15 19 1011.7 1011.6 0.2
13/05:00am 22.1 20.9 20.9 93 0.8 N 28 37 15 20 1011.7 1011.6 0.2
13/04:30am 22.1 20.9 20.9 93 0.8 N 28 35 15 19 1011.8 1011.7 0.2
13/04:00am 22.3 21.1 20.9 92 0.9 N 28 35 15 19 1012.0 1011.9 0.2
13/03:30am 22.4 20.5 21.0 92 0.9 NNE 32 39 17 21 1012.1 1012.0 0.2
13/03:00am 22.6 22.0 21.2 92 0.9 N 26 35 14 19 1012.4 1012.3 0.2
13/02:30am 22.7 21.3 21.2 91 1.0 N 30 39 16 21 1012.8 1012.7 0.2
13/02:00am 23.0 19.7 20.9 88 1.4 NNE 39 46 21 25 1013.2 1013.0 0.2
13/01:30am 23.1 20.9 21.4 90 1.1 NNE 35 44 19 24 1013.5 1013.3 0.2
13/01:00am 23.0 21.2 21.6 92 0.9 NNE 33 41 18 22 1013.8 1013.6 0.2
13/12:30am 23.0 20.8 21.5 91 1.0 NNE 35 44 19 24 1013.9 1013.7 0.2
13/12:00am 23.1 20.5 21.5 91 1.1 NNE 37 44 20 24 1014.0 1013.8 0.2
 
Date/Time
EDT
Tmp

°C
App
Tmp
°C
Dew
Point
°C
Rel
Hum
%
Delta-T

°C
Wind Press
QNH
hPa
Press
MSL
hPa
Rain
since
9 am
mm
Dir
 
Spd
km/h
Gust
km/h
Spd
kts
Gust
kts
12/11:30pm 23.2 20.6 21.5 90 1.1 NNE 37 43 20 23 1014.3 1014.1 0.2
12/11:00pm 23.1 20.9 21.5 91 1.1 NNE 35 41 19 22 1014.5 1014.3 0.2
12/10:30pm 23.3 21.2 21.6 90 1.1 NNE 35 41 19 22 1014.8 1014.6 0.2
12/10:00pm 23.2 21.4 21.6 91 1.1 NNE 33 37 18 20 1014.9 1014.7 0.2
12/09:30pm 23.2 21.6 21.6 91 1.1 NNE 32 41 17 22 1014.7 1014.5 0.2
12/09:00pm 23.3 21.6 21.4 89 1.3 NNE 32 39 17 21 1014.5 1014.3 0.2
12/08:30pm 23.3 21.6 21.4 89 1.3 NNE 32 39 17 21 1014.5 1014.3 0.2
12/08:00pm 23.4 21.2 21.5 89 1.3 NNE 35 41 19 22 1014.2 1014.0 0.2
12/07:30pm 23.4 21.5 21.3 88 1.4 NNE 33 39 18 21 1013.8 1013.6 0.2
12/07:00pm 23.5 21.7 21.2 87 1.5 NNE 32 39 17 21 1013.6 1013.4 0.2
12/06:30pm 23.7 21.7 21.2 86 1.6 NNE 33 41 18 22 1013.5 1013.3 0.2
12/06:00pm 24.0 21.9 20.9 83 2.0 NNE 33 43 18 23 1013.7 1013.5 0.2
12/05:30pm 24.1 21.8 21.2 84 1.9 NNE 35 41 19 22 1013.6 1013.4 0.2
12/05:00pm 24.4 21.8 20.7 80 2.4 NNE 35 43 19 23 1013.8 1013.6 0.2
12/04:30pm 24.5 22.8 20.6 79 2.6 NNE 30 35 16 19 1013.7 1013.5 0.2
12/04:00pm 24.7 22.7 20.0 75 3.0 NNE 30 33 16 18 1013.9 1013.7 0.2
12/03:30pm 25.5 26.2 21.6 79 2.6 NNE 20 28 11 15 1014.3 1014.1 0.2
12/03:00pm 24.7 24.7 21.6 83 2.1 NE 24 30 13 16 1014.5 1014.3 0.2
12/02:30pm 24.3 23.8 20.8 81 2.3 NE 24 28 13 15 1014.8 1014.6 0.2
12/02:00pm 24.4 23.9 20.7 80 2.4 NE 24 28 13 15 1015.2 1015.0 0.2
12/01:30pm 24.3 24.0 20.4 79 2.5 NE 22 24 12 13 1015.5 1015.3 0.2
12/01:00pm 24.2 24.5 20.7 81 2.3 NE 20 22 11 12 1015.7 1015.5 0.2
12/12:30pm 23.6 24.2 20.3 82 2.1 ENE 17 22 9 12 1016.0 1015.8 0.2
12/12:00pm 24.6 26.1 21.3 82 2.2 ENE 15 19 8 10 1016.4 1016.2 0.2
12/11:30am 23.9 25.9 20.8 83 2.0 E 11 13 6 7 1016.5 1016.3 0.2
12/11:00am 22.9 25.1 19.7 82 2.1 E 7 9 4 5 1016.7 1016.5 0.2
12/10:30am 23.0 25.3 19.8 82 2.1 SE 7 9 4 5 1017.0 1016.8 0.2
12/10:00am 23.5 26.2 20.2 82 2.1 WSW 6 9 3 5 1016.9 1016.7 0.0
12/09:30am 23.1 25.8 20.6 86 1.6 WSW 7 11 4 6 1016.9 1016.7 0.0
12/09:00am 22.3 24.9 20.4 89 1.2 SW 7 11 4 6 1017.0 1016.8 2.6
12/08:30am 21.6 23.7 20.2 92 0.9 SSW 9 13 5 7 1016.8 1016.6 2.6
12/08:00am 20.9 22.2 20.1 95 0.5 SSW 13 15 7 8 1016.7 1016.5 2.6
12/07:30am 20.5 21.7 19.8 96 0.4 SW 13 17 7 9 1016.5 1016.3 2.6
12/07:00am 20.3 21.4 19.6 96 0.4 SW 13 15 7 8 1016.2 1016.0 2.6
12/06:30am 20.4 21.5 19.7 96 0.4 SSW 13 17 7 9 1016.0 1015.8 2.6
12/06:00am 20.5 21.3 19.8 96 0.4 SSW 15 17 8 9 1015.6 1015.4 2.6
12/05:30am 20.5 20.5 19.8 96 0.4 SSW 19 22 10 12 1015.4 1015.2 2.6
12/05:00am 20.6 21.0 19.8 95 0.5 SSW 17 20 9 11 1015.2 1015.0 2.6
12/04:30am 20.6 21.8 19.8 95 0.5 SSW 13 17 7 9 1015.2 1015.0 2.6
12/04:00am 20.8 21.7 20.0 95 0.5 SSW 15 19 8 10 1015.3 1015.1 2.6
12/03:30am 20.8 21.7 20.0 95 0.5 SSW 15 17 8 9 1015.2 1015.0 2.6
12/03:00am 21.0 22.6 20.0 94 0.6 SSW 11 13 6 7 1015.3 1015.1 2.6
12/02:30am 21.0 22.5 19.8 93 0.8 SW 11 15 6 8 1015.5 1015.3 2.6
12/02:00am 21.1 22.2 19.7 92 0.9 SW 13 15 7 8 1015.9 1015.7 2.6
12/01:30am 21.2 23.7 19.8 92 0.9 SW 6 7 3 4 1016.1 1015.9 2.6
12/01:00am 21.4 23.8 20.0 92 0.9 SSW 7 7 4 4 1016.4 1016.2 2.6
12/12:30am 21.6 24.2 20.1 91 1.0 WSW 6 7 3 4 1016.5 1016.3 2.6
12/12:00am 22.0 24.5 20.3 90 1.1 WSW 7 9 4 5 1016.6 1016.4 2.6
 
Date/Time
EDT
Tmp

°C
App
Tmp
°C
Dew
Point
°C
Rel
Hum
%
Delta-T

°C
Wind Press
QNH
hPa
Press
MSL
hPa
Rain
since
9 am
mm
Dir
 
Spd
km/h
Gust
km/h
Spd
kts
Gust
kts
11/11:30pm 22.5 25.2 20.2 87 1.5 W 6 7 3 4 1016.8 1016.6 2.6
11/11:00pm 22.5 25.9 20.2 87 1.5 NW 2 4 1 2 1016.7 1016.5 2.6
11/10:30pm 22.4 25.6 20.5 89 1.2 NNE 4 6 2 3 1016.6 1016.4 2.6
11/10:00pm 22.6 24.8 21.1 91 1.0 NE 11 17 6 9 1016.8 1016.6 2.6
11/09:30pm 22.3 24.6 20.6 90 1.1 SE 9 11 5 6 1016.4 1016.2 2.4
11/09:00pm 22.9 24.2 20.8 88 1.4 ESE 15 19 8 10 1016.0 1015.8 0.2
11/08:30pm 22.8 23.1 20.5 87 1.5 ESE 19 22 10 12 1015.4 1015.2 0.2
11/08:00pm 22.8 23.5 20.5 87 1.5 ESE 17 20 9 11 1015.5 1015.3 0.2
11/07:30pm 22.7 22.9 20.2 86 1.6 ESE 19 22 10 12 1015.4 1015.2 0.2
11/07:00pm 22.6 22.2 20.1 86 1.6 SE 22 24 12 13 1015.0 1014.8 0.2
11/06:30pm 22.6 22.6 20.1 86 1.6 ESE 20 24 11 13 1014.9 1014.7 0.2
11/06:00pm 22.6 22.6 20.1 86 1.6 ESE 20 24 11 13 1014.7 1014.5 0.2
11/05:30pm 22.5 22.4 20.0 86 1.6 SE 20 22 11 12 1014.9 1014.7 0.2
11/05:00pm 22.7 22.3 20.2 86 1.6 SE 22 26 12 14 1014.8 1014.6 0.2
11/04:30pm 22.5 21.6 19.9 85 1.7 ESE 24 28 13 15 1014.6 1014.4 0.2
11/04:00pm 22.7 21.4 19.9 84 1.8 SE 26 30 14 16 1014.7 1014.5 0.2
11/03:30pm 23.4 21.8 20.0 81 2.2 SE 28 32 15 17 1014.9 1014.7 0.2
11/03:00pm 23.4 21.8 20.0 81 2.2 SE 28 32 15 17 1015.1 1014.9 0.2
11/02:30pm 23.7 22.3 20.4 82 2.1 SE 28 32 15 17 1015.6 1015.4 0.2
11/02:00pm 23.6 21.6 19.9 80 2.4 SE 30 33 16 18 1015.7 1015.5 0.2
11/01:30pm 23.4 21.4 20.0 81 2.2 SSE 30 35 16 19 1015.9 1015.7 0.2
11/01:00pm 23.7 22.2 20.2 81 2.3 SSE 28 32 15 17 1015.9 1015.7 0.2
11/12:30pm 25.4 26.6 20.0 72 3.5 S 13 20 7 11 1015.9 1015.7 0.2
11/12:00pm 24.5 24.4 20.0 76 2.9 SW 20 26 11 14 1016.1 1015.9 0.2
11/11:30am 23.3 21.5 19.5 79 2.4 WSW 28 39 15 21 1016.3 1016.1 0.2
11/11:00am 23.5 22.1 20.4 83 2.0 SW 28 35 15 19 1016.0 1015.8 0.0
11/10:30am 23.4 23.1 21.1 87 1.5 SSW 24 32 13 17 1015.9 1015.7 0.0
11/10:00am 22.0 21.6 20.1 89 1.2 SW 22 28 12 15 1016.0 1015.8 0.0
11/09:30am 22.9 24.2 20.2 85 1.7 SW 13 17 7 9 1016.0 1015.8 0.0
11/09:00am 23.0 23.1 20.3 85 1.7 SW 20 26 11 14 1015.7 1015.5 -
11/08:30am 22.5 22.9 20.6 89 1.2 SW 19 22 10 12 1015.6 1015.4 -
11/08:00am 22.0 22.6 20.3 90 1.1 SW 17 20 9 11 1015.4 1015.2 -
11/07:30am 21.6 21.6 20.1 91 1.0 SSW 20 24 11 13 1015.1 1014.9 -
11/07:00am 21.2 21.0 19.8 92 0.9 SW 20 26 11 14 1014.8 1014.6 -
11/06:30am 21.3 21.2 19.9 92 0.9 SW 20 24 11 13 1014.5 1014.3 -
11/06:00am 21.4 21.5 20.0 92 0.9 SW 19 24 10 13 1014.4 1014.2 -
11/05:30am 21.4 21.3 20.0 92 0.9 SW 20 24 11 13 1013.9 1013.7 -
11/05:00am 21.3 21.2 19.9 92 0.9 SSW 20 26 11 14 1013.6 1013.4 -
11/04:30am 21.3 21.7 19.8 91 1.0 SSW 17 22 9 12 1013.5 1013.3 -
11/04:00am 21.3 21.7 19.8 91 1.0 SSW 17 20 9 11 1013.5 1013.3 -
11/03:30am 21.4 21.5 19.9 91 1.0 SSW 19 22 10 12 1013.7 1013.5 -
11/03:00am 21.3 21.2 19.6 90 1.1 SW 19 22 10 12 1013.8 1013.6 0.0
11/02:30am 21.4 21.5 19.9 91 1.0 SW 19 22 10 12 1013.9 1013.7 -
11/02:00am 21.4 22.2 19.9 91 1.0 SW 15 19 8 10 1014.2 1014.0 -
11/01:30am 21.5 21.6 20.0 91 1.0 SW 19 24 10 13 1014.5 1014.3 -
11/01:00am 21.6 22.1 20.1 91 1.0 SW 17 22 9 12 1014.7 1014.5 -
11/12:30am 21.7 22.2 20.0 90 1.1 SW 17 20 9 11 1014.8 1014.6 -
11/12:00am 22.0 22.3 20.3 90 1.1 SW 19 24 10 13 1014.9 1014.7 -
 
Date/Time
EDT
Tmp

°C
App
Tmp
°C
Dew
Point
°C
Rel
Hum
%
Delta-T

°C
Wind Press
QNH
hPa
Press
MSL
hPa
Rain
since
9 am
mm
Dir
 
Spd
km/h
Gust
km/h
Spd
kts
Gust
kts
10/11:30pm 22.2 22.8 20.3 89 1.2 SW 17 26 9 14 1014.9 1014.7 -
10/11:00pm 22.8 26.3 20.3 86 1.6 SW 2 7 1 4 1015.1 1014.9 -
10/10:30pm 22.9 26.8 20.4 86 1.6 CALM 0 0 0 0 1015.4 1015.2 -
10/10:00pm 22.9 26.8 20.4 86 1.6 CALM 0 0 0 0 1015.2 1015.0 -
10/09:30pm 23.0 27.0 20.5 86 1.6 CALM 0 6 0 3 1014.9 1014.7 -
10/09:00pm 23.0 27.1 20.7 87 1.5 CALM 0 6 0 3 1014.6 1014.4 0.0
10/08:30pm 23.1 27.1 20.6 86 1.6 CALM 0 6 0 3 1014.3 1014.1 -
10/08:00pm 23.1 25.7 20.4 85 1.8 SE 7 9 4 5 1013.8 1013.6 -
10/07:30pm 23.8 26.0 20.3 81 2.3 S 9 11 5 6 1013.6 1013.4 -
10/07:00pm 23.8 26.7 19.9 79 2.5 SSE 4 7 2 4 1013.4 1013.2 -
10/06:30pm 24.0 26.7 20.3 80 2.4 SE 6 7 3 4 1012.6 1012.5 -
10/06:00pm 24.0 26.5 20.3 80 2.4 SSE 7 9 4 5 1012.3 1012.2 -
10/05:30pm 24.2 26.6 20.1 78 2.7 SSE 7 9 4 5 1012.1 1012.0 -
10/05:00pm 24.7 27.0 19.8 74 3.2 ESE 7 9 4 5 1012.0 1011.9 -
10/04:30pm 25.0 27.2 20.3 75 3.1 NE 9 11 5 6 1011.8 1011.7 -
10/04:00pm 25.3 27.0 21.0 77 2.8 NE 13 17 7 9 1011.5 1011.4 -
10/03:30pm 25.2 26.3 20.5 75 3.1 NE 15 20 8 11 1011.4 1011.3 -
10/03:00pm 25.1 25.5 20.6 76 3.0 NNE 19 24 10 13 1011.5 1011.4 -
10/02:30pm 24.9 25.2 20.4 76 2.9 NNE 19 24 10 13 1011.8 1011.7 -
10/02:00pm 24.5 23.9 19.8 75 3.0 NNE 22 26 12 14 1011.9 1011.8 -
10/01:30pm 24.3 23.3 19.6 75 3.0 NNE 24 32 13 17 1012.0 1011.9 -
10/01:00pm 24.0 21.2 19.1 74 3.1 NNE 32 39 17 21 1012.1 1012.0 -
10/12:30pm 23.9 19.9 18.5 72 3.4 NNE 37 43 20 23 1012.4 1012.3 -
10/12:00pm 23.7 20.1 18.6 73 3.2 NNE 35 41 19 22 1012.8 1012.7 -

Latest Capital City Observations: Canberra | Sydney | Melbourne | Brisbane | Adelaide | Perth | Hobart | Darwin

Other Formats:

Comma delimited format used in spreadsheet applications
http://www.bom.gov.au/fwo/IDN60903/IDN60903.94939.axf

JavaScript Object Notation format (JSON) in row-major order
http://www.bom.gov.au/fwo/IDN60903/IDN60903.94939.json